CheckWX is a tool to help pilots better visualize weather data.  It is not intended as a substitute for an official pre-flight weather briefing.

23:48:22 UTC

EHRD METAR
Rotterdam Airport
Rotterdam, The Netherlands
Current

23 mins ago

EHRD 192325Z AUTO 05003KT 9999 NSC 18/16 Q1011 NOSIG
Observed
Jul-19 @ 23:25 UTC
Wind
  • 050° at 3 KTS
Visibility
10,000+ meters
Flight Rules
VFR
Cloud Levels
  • Clear skies
Temperature
18°C / 64°F
Dewpoint
16°C / 61°F
Humidity
88%
Altimeter
29.85" Hg
Pressure
1010.92 hPa
Previous

53 mins ago

EHRD 192255Z AUTO VRB02KT 9999 NSC 18/16 Q1011 NOSIG
Observed
Jul-19 @ 22:55 UTC
Wind
  • Variable at 2 KTS
Visibility
10,000+ meters
Flight Rules
VFR
Cloud Levels
  • Clear skies
Temperature
18°C / 64°F
Dewpoint
16°C / 61°F
Humidity
88%
Altimeter
29.85" Hg
Pressure
1010.92 hPa
Previous

1 hour ago

EHRD 192225Z AUTO 12003KT 080V150 9999 NSC 19/15 Q1011 NOSIG
Observed
Jul-19 @ 22:25 UTC
Wind
  • 120° at 3 KTS
Visibility
10,000+ meters
Flight Rules
VFR
Cloud Levels
  • Clear skies
Temperature
19°C / 66°F
Dewpoint
15°C / 59°F
Humidity
78%
Altimeter
29.85" Hg
Pressure
1010.92 hPa